sensor_id;sensor_type;location;lat;lon;timestamp;P1;durP1;ratioP1;P2;durP2;ratioP2
50591;SDS011;36548;50.506;30.834;2023-04-06T00:00:54;10.30;;;9.20;;
50591;SDS011;36548;50.506;30.834;2023-04-06T00:02:04;11.75;;;8.60;;
50591;SDS011;36548;50.506;30.834;2023-04-06T00:03:21;9.85;;;8.40;;
50591;SDS011;36548;50.506;30.834;2023-04-06T00:04:31;10.30;;;8.70;;
50591;SDS011;36548;50.506;30.834;2023-04-06T00:05:40;10.72;;;8.65;;
50591;SDS011;36548;50.506;30.834;2023-04-06T00:06:50;9.40;;;8.43;;
50591;SDS011;36548;50.506;30.834;2023-04-06T00:08:06;9.60;;;8.05;;
50591;SDS011;36548;50.506;30.834;2023-04-06T00:09:16;9.42;;;8.43;;
50591;SDS011;36548;50.506;30.834;2023-04-06T00:10:31;9.35;;;8.05;;
50591;SDS011;36548;50.506;30.834;2023-04-06T00:12:51;9.03;;;8.13;;
50591;SDS011;36548;50.506;30.834;2023-04-06T00:14:08;10.08;;;9.08;;
50591;SDS011;36548;50.506;30.834;2023-04-06T00:15:19;11.00;;;9.90;;
50591;SDS011;36548;50.506;30.834;2023-04-06T00:16:35;11.02;;;9.72;;
50591;SDS011;36548;50.506;30.834;2023-04-06T00:17:45;11.38;;;10.28;;
50591;SDS011;36548;50.506;30.834;2023-04-06T00:19:01;11.78;;;10.38;;
50591;SDS011;36548;50.506;30.834;2023-04-06T00:20:11;10.65;;;9.32;;
50591;SDS011;36548;50.506;30.834;2023-04-06T00:21:27;9.95;;;8.90;;
50591;SDS011;36548;50.506;30.834;2023-04-06T00:22:37;10.70;;;8.90;;
50591;SDS011;36548;50.506;30.834;2023-04-06T00:23:47;9.60;;;8.45;;
50591;SDS011;36548;50.506;30.834;2023-04-06T00:24:57;9.80;;;8.15;;
50591;SDS011;36548;50.506;30.834;2023-04-06T00:26:08;9.65;;;8.10;;
50591;SDS011;36548;50.506;30.834;2023-04-06T00:27:18;8.72;;;7.82;;
50591;SDS011;36548;50.506;30.834;2023-04-06T00:28:27;8.70;;;7.75;;
50591;SDS011;36548;50.506;30.834;2023-04-06T00:29:39;9.57;;;8.05;;
50591;SDS011;36548;50.506;30.834;2023-04-06T00:31:14;8.58;;;7.53;;
50591;SDS011;36548;50.506;30.834;2023-04-06T00:32:23;11.05;;;8.25;;
50591;SDS011;36548;50.506;30.834;2023-04-06T00:33:38;8.67;;;7.73;;
50591;SDS011;36548;50.506;30.834;2023-04-06T00:34:49;8.55;;;7.75;;
50591;SDS011;36548;50.506;30.834;2023-04-06T00:36:06;10.67;;;9.32;;
50591;SDS011;36548;50.506;30.834;2023-04-06T00:37:15;10.35;;;9.22;;
50591;SDS011;36548;50.506;30.834;2023-04-06T00:38:25;10.37;;;9.35;;
50591;SDS011;36548;50.506;30.834;2023-04-06T00:39:41;10.97;;;9.92;;
50591;SDS011;36548;50.506;30.834;2023-04-06T00:40:51;11.30;;;10.23;;
50591;SDS011;36548;50.506;30.834;2023-04-06T00:42:07;12.47;;;10.83;;
50591;SDS011;36548;50.506;30.834;2023-04-06T00:43:19;10.83;;;9.55;;
50591;SDS011;36548;50.506;30.834;2023-04-06T00:44:35;10.07;;;8.95;;
50591;SDS011;36548;50.506;30.834;2023-04-06T00:45:45;10.78;;;8.63;;
50591;SDS011;36548;50.506;30.834;2023-04-06T00:47:00;9.73;;;8.73;;
50591;SDS011;36548;50.506;30.834;2023-04-06T00:48:10;9.40;;;8.45;;
50591;SDS011;36548;50.506;30.834;2023-04-06T00:49:20;11.18;;;8.25;;
50591;SDS011;36548;50.506;30.834;2023-04-06T00:50:29;10.60;;;8.45;;
50591;SDS011;36548;50.506;30.834;2023-04-06T00:51:45;9.98;;;8.17;;
50591;SDS011;36548;50.506;30.834;2023-04-06T00:52:55;9.93;;;8.48;;
50591;SDS011;36548;50.506;30.834;2023-04-06T00:54:07;9.83;;;8.10;;
50591;SDS011;36548;50.506;30.834;2023-04-06T00:55:17;9.15;;;8.10;;
50591;SDS011;36548;50.506;30.834;2023-04-06T00:56:32;9.42;;;7.78;;
50591;SDS011;36548;50.506;30.834;2023-04-06T00:57:43;9.32;;;8.03;;
50591;SDS011;36548;50.506;30.834;2023-04-06T00:58:53;11.50;;;8.90;;
50591;SDS011;36548;50.506;30.834;2023-04-06T01:00:09;11.05;;;8.28;;
50591;SDS011;36548;50.506;30.834;2023-04-06T01:01:21;8.95;;;8.05;;
50591;SDS011;36548;50.506;30.834;2023-04-06T01:02:33;9.52;;;8.40;;
50591;SDS011;36548;50.506;30.834;2023-04-06T01:03:49;10.43;;;8.48;;
50591;SDS011;36548;50.506;30.834;2023-04-06T01:04:59;10.56;;;9.50;;
50591;SDS011;36548;50.506;30.834;2023-04-06T01:06:15;11.12;;;9.62;;
50591;SDS011;36548;50.506;30.834;2023-04-06T01:07:27;10.45;;;9.45;;
50591;SDS011;36548;50.506;30.834;2023-04-06T01:08:44;11.10;;;10.00;;
50591;SDS011;36548;50.506;30.834;2023-04-06T01:09:58;11.95;;;10.60;;
50591;SDS011;36548;50.506;30.834;2023-04-06T01:11:13;11.30;;;10.20;;
50591;SDS011;36548;50.506;30.834;2023-04-06T01:12:23;11.88;;;10.65;;
50591;SDS011;36548;50.506;30.834;2023-04-06T01:13:40;12.27;;;10.97;;
50591;SDS011;36548;50.506;30.834;2023-04-06T01:14:51;10.00;;;8.85;;
50591;SDS011;36548;50.506;30.834;2023-04-06T01:16:07;12.02;;;9.52;;
50591;SDS011;36548;50.506;30.834;2023-04-06T01:17:29;9.98;;;8.58;;
50591;SDS011;36548;50.506;30.834;2023-04-06T01:18:44;9.30;;;8.37;;
50591;SDS011;36548;50.506;30.834;2023-04-06T01:19:56;10.63;;;8.43;;
50591;SDS011;36548;50.506;30.834;2023-04-06T01:21:11;10.10;;;8.97;;
50591;SDS011;36548;50.506;30.834;2023-04-06T01:22:26;9.20;;;7.95;;
50591;SDS011;36548;50.506;30.834;2023-04-06T01:23:39;9.23;;;8.32;;
50591;SDS011;36548;50.506;30.834;2023-04-06T01:24:56;8.77;;;7.72;;
50591;SDS011;36548;50.506;30.834;2023-04-06T01:26:40;9.68;;;7.85;;
50591;SDS011;36548;50.506;30.834;2023-04-06T01:27:56;8.67;;;7.73;;
50591;SDS011;36548;50.506;30.834;2023-04-06T01:29:25;9.05;;;8.15;;
50591;SDS011;36548;50.506;30.834;2023-04-06T01:30:35;9.95;;;8.95;;
50591;SDS011;36548;50.506;30.834;2023-04-06T01:31:50;10.38;;;9.15;;
50591;SDS011;36548;50.506;30.834;2023-04-06T01:32:59;11.23;;;9.17;;
50591;SDS011;36548;50.506;30.834;2023-04-06T01:34:51;11.28;;;10.05;;
50591;SDS011;36548;50.506;30.834;2023-04-06T01:36:03;11.88;;;10.68;;
50591;SDS011;36548;50.506;30.834;2023-04-06T01:37:14;11.98;;;10.75;;
50591;SDS011;36548;50.506;30.834;2023-04-06T01:38:31;14.23;;;11.43;;
50591;SDS011;36548;50.506;30.834;2023-04-06T01:39:42;13.03;;;11.65;;
50591;SDS011;36548;50.506;30.834;2023-04-06T01:40:58;11.85;;;10.48;;
50591;SDS011;36548;50.506;30.834;2023-04-06T01:42:10;11.93;;;10.42;;
50591;SDS011;36548;50.506;30.834;2023-04-06T01:43:26;12.82;;;11.08;;
50591;SDS011;36548;50.506;30.834;2023-04-06T01:44:47;11.93;;;10.72;;
50591;SDS011;36548;50.506;30.834;2023-04-06T01:45:59;12.10;;;9.90;;
50591;SDS011;36548;50.506;30.834;2023-04-06T01:47:15;10.98;;;9.15;;
50591;SDS011;36548;50.506;30.834;2023-04-06T01:48:25;9.72;;;8.02;;
50591;SDS011;36548;50.506;30.834;2023-04-06T01:50:45;8.25;;;7.17;;
50591;SDS011;36548;50.506;30.834;2023-04-06T01:52:00;9.38;;;8.07;;
50591;SDS011;36548;50.506;30.834;2023-04-06T01:53:10;9.10;;;8.03;;
50591;SDS011;36548;50.506;30.834;2023-04-06T01:55:38;8.93;;;7.12;;
50591;SDS011;36548;50.506;30.834;2023-04-06T01:56:53;8.75;;;7.28;;
50591;SDS011;36548;50.506;30.834;2023-04-06T01:58:04;9.45;;;8.23;;
50591;SDS011;36548;50.506;30.834;2023-04-06T01:59:17;10.75;;;9.05;;
50591;SDS011;36548;50.506;30.834;2023-04-06T02:00:26;13.40;;;9.35;;
50591;SDS011;36548;50.506;30.834;2023-04-06T02:01:36;10.13;;;9.10;;
50591;SDS011;36548;50.506;30.834;2023-04-06T02:02:45;11.48;;;10.15;;
50591;SDS011;36548;50.506;30.834;2023-04-06T02:04:01;11.65;;;9.72;;
50591;SDS011;36548;50.506;30.834;2023-04-06T02:05:11;11.78;;;10.57;;
50591;SDS011;36548;50.506;30.834;2023-04-06T02:06:27;11.87;;;10.67;;
50591;SDS011;36548;50.506;30.834;2023-04-06T02:07:36;11.10;;;10.00;;
50591;SDS011;36548;50.506;30.834;2023-04-06T02:08:51;11.57;;;10.08;;
50591;SDS011;36548;50.506;30.834;2023-04-06T02:10:01;10.98;;;9.40;;
50591;SDS011;36548;50.506;30.834;2023-04-06T02:11:18;11.37;;;8.75;;
50591;SDS011;36548;50.506;30.834;2023-04-06T02:12:29;8.78;;;7.80;;
50591;SDS011;36548;50.506;30.834;2023-04-06T02:13:46;9.40;;;8.45;;
50591;SDS011;36548;50.506;30.834;2023-04-06T02:14:56;9.05;;;7.40;;
50591;SDS011;36548;50.506;30.834;2023-04-06T02:16:11;9.23;;;8.00;;
50591;SDS011;36548;50.506;30.834;2023-04-06T02:17:22;9.70;;;8.70;;
50591;SDS011;36548;50.506;30.834;2023-04-06T02:18:39;9.02;;;7.12;;
50591;SDS011;36548;50.506;30.834;2023-04-06T02:19:49;9.05;;;7.50;;
50591;SDS011;36548;50.506;30.834;2023-04-06T02:21:00;8.30;;;7.42;;
50591;SDS011;36548;50.506;30.834;2023-04-06T02:22:17;9.45;;;7.30;;
50591;SDS011;36548;50.506;30.834;2023-04-06T02:23:27;7.40;;;6.70;;
50591;SDS011;36548;50.506;30.834;2023-04-06T02:24:43;7.97;;;7.17;;
50591;SDS011;36548;50.506;30.834;2023-04-06T02:25:52;8.23;;;7.12;;
50591;SDS011;36548;50.506;30.834;2023-04-06T02:27:01;8.20;;;7.35;;
50591;SDS011;36548;50.506;30.834;2023-04-06T02:28:18;7.57;;;6.73;;
50591;SDS011;36548;50.506;30.834;2023-04-06T02:29:27;8.18;;;7.33;;
50591;SDS011;36548;50.506;30.834;2023-04-06T02:31:55;10.72;;;8.07;;
50591;SDS011;36548;50.506;30.834;2023-04-06T02:33:05;9.60;;;8.65;;
50591;SDS011;36548;50.506;30.834;2023-04-06T02:34:17;9.30;;;8.37;;
50591;SDS011;36548;50.506;30.834;2023-04-06T02:35:33;10.60;;;9.45;;
50591;SDS011;36548;50.506;30.834;2023-04-06T02:37:55;9.93;;;9.03;;
50591;SDS011;36548;50.506;30.834;2023-04-06T02:39:12;11.25;;;10.05;;
50591;SDS011;36548;50.506;30.834;2023-04-06T02:40:23;11.07;;;9.18;;
50591;SDS011;36548;50.506;30.834;2023-04-06T02:41:38;9.84;;;7.82;;
50591;SDS011;36548;50.506;30.834;2023-04-06T02:42:48;11.15;;;8.67;;
50591;SDS011;36548;50.506;30.834;2023-04-06T02:44:03;9.07;;;7.88;;
50591;SDS011;36548;50.506;30.834;2023-04-06T02:45:17;11.45;;;7.38;;
50591;SDS011;36548;50.506;30.834;2023-04-06T02:46:33;7.13;;;6.40;;
50591;SDS011;36548;50.506;30.834;2023-04-06T02:47:44;7.83;;;7.07;;
50591;SDS011;36548;50.506;30.834;2023-04-06T02:49:01;8.25;;;6.70;;
50591;SDS011;36548;50.506;30.834;2023-04-06T02:50:13;9.82;;;7.20;;
50591;SDS011;36548;50.506;30.834;2023-04-06T02:51:24;9.03;;;7.07;;
50591;SDS011;36548;50.506;30.834;2023-04-06T02:52:40;7.98;;;6.98;;
50591;SDS011;36548;50.506;30.834;2023-04-06T02:53:52;7.58;;;6.78;;
50591;SDS011;36548;50.506;30.834;2023-04-06T02:55:08;7.42;;;6.57;;
50591;SDS011;36548;50.506;30.834;2023-04-06T02:56:19;9.42;;;7.32;;
50591;SDS011;36548;50.506;30.834;2023-04-06T02:57:32;7.17;;;6.22;;
50591;SDS011;36548;50.506;30.834;2023-04-06T02:58:47;8.48;;;7.02;;
50591;SDS011;36548;50.506;30.834;2023-04-06T03:01:18;7.53;;;6.70;;
50591;SDS011;36548;50.506;30.834;2023-04-06T03:02:34;7.33;;;6.63;;
50591;SDS011;36548;50.506;30.834;2023-04-06T03:03:45;7.18;;;6.48;;
50591;SDS011;36548;50.506;30.834;2023-04-06T03:05:01;9.27;;;7.62;;
50591;SDS011;36548;50.506;30.834;2023-04-06T03:06:15;7.50;;;6.70;;
50591;SDS011;36548;50.506;30.834;2023-04-06T03:07:29;8.48;;;6.60;;
50591;SDS011;36548;50.506;30.834;2023-04-06T03:08:39;8.35;;;7.28;;
50591;SDS011;36548;50.506;30.834;2023-04-06T03:09:55;7.35;;;6.65;;
50591;SDS011;36548;50.506;30.834;2023-04-06T03:11:05;7.40;;;6.55;;
50591;SDS011;36548;50.506;30.834;2023-04-06T03:12:16;7.87;;;7.05;;
50591;SDS011;36548;50.506;30.834;2023-04-06T03:13:41;7.70;;;6.78;;
50591;SDS011;36548;50.506;30.834;2023-04-06T03:14:56;8.63;;;6.85;;
50591;SDS011;36548;50.506;30.834;2023-04-06T03:16:08;7.28;;;6.42;;
50591;SDS011;36548;50.506;30.834;2023-04-06T03:17:23;7.68;;;6.92;;
50591;SDS011;36548;50.506;30.834;2023-04-06T03:18:34;7.85;;;6.83;;
50591;SDS011;36548;50.506;30.834;2023-04-06T03:19:43;8.08;;;6.77;;
50591;SDS011;36548;50.506;30.834;2023-04-06T03:21:18;7.38;;;6.67;;
50591;SDS011;36548;50.506;30.834;2023-04-06T03:22:30;7.15;;;6.47;;
50591;SDS011;36548;50.506;30.834;2023-04-06T03:23:39;7.80;;;7.00;;
50591;SDS011;36548;50.506;30.834;2023-04-06T03:24:55;6.98;;;6.33;;
50591;SDS011;36548;50.506;30.834;2023-04-06T03:26:06;7.68;;;6.60;;
50591;SDS011;36548;50.506;30.834;2023-04-06T03:27:22;7.55;;;6.70;;
50591;SDS011;36548;50.506;30.834;2023-04-06T03:28:32;8.85;;;6.97;;
50591;SDS011;36548;50.506;30.834;2023-04-06T03:30:58;8.15;;;6.47;;
50591;SDS011;36548;50.506;30.834;2023-04-06T03:32:26;6.67;;;6.07;;
50591;SDS011;36548;50.506;30.834;2023-04-06T03:33:36;8.05;;;7.25;;
50591;SDS011;36548;50.506;30.834;2023-04-06T03:34:52;8.55;;;7.25;;
50591;SDS011;36548;50.506;30.834;2023-04-06T03:36:01;9.03;;;7.23;;
50591;SDS011;36548;50.506;30.834;2023-04-06T03:37:17;8.65;;;7.85;;
50591;SDS011;36548;50.506;30.834;2023-04-06T03:38:28;10.73;;;7.98;;
50591;SDS011;36548;50.506;30.834;2023-04-06T03:39:38;8.66;;;7.80;;
50591;SDS011;36548;50.506;30.834;2023-04-06T03:40:53;9.27;;;8.37;;
50591;SDS011;36548;50.506;30.834;2023-04-06T03:42:04;9.00;;;8.07;;
50591;SDS011;36548;50.506;30.834;2023-04-06T03:43:16;8.30;;;7.45;;
50591;SDS011;36548;50.506;30.834;2023-04-06T03:44:32;7.92;;;7.12;;
50591;SDS011;36548;50.506;30.834;2023-04-06T03:45:45;8.10;;;6.55;;
50591;SDS011;36548;50.506;30.834;2023-04-06T03:47:02;7.73;;;6.55;;
50591;SDS011;36548;50.506;30.834;2023-04-06T03:48:11;6.85;;;5.92;;
50591;SDS011;36548;50.506;30.834;2023-04-06T03:49:21;7.83;;;7.00;;
50591;SDS011;36548;50.506;30.834;2023-04-06T03:50:32;7.57;;;6.25;;
50591;SDS011;36548;50.506;30.834;2023-04-06T03:51:42;7.28;;;6.53;;
50591;SDS011;36548;50.506;30.834;2023-04-06T03:52:57;7.18;;;6.10;;
50591;SDS011;36548;50.506;30.834;2023-04-06T03:54:07;8.73;;;6.67;;
50591;SDS011;36548;50.506;30.834;2023-04-06T03:55:18;9.55;;;6.50;;
50591;SDS011;36548;50.506;30.834;2023-04-06T03:56:30;7.00;;;6.30;;
50591;SDS011;36548;50.506;30.834;2023-04-06T03:57:46;7.55;;;6.28;;
50591;SDS011;36548;50.506;30.834;2023-04-06T03:58:55;7.92;;;6.92;;
50591;SDS011;36548;50.506;30.834;2023-04-06T04:00:12;7.92;;;6.95;;
50591;SDS011;36548;50.506;30.834;2023-04-06T04:01:21;8.35;;;7.50;;
50591;SDS011;36548;50.506;30.834;2023-04-06T04:02:57;9.50;;;8.50;;
50591;SDS011;36548;50.506;30.834;2023-04-06T04:05:16;9.47;;;8.03;;
50591;SDS011;36548;50.506;30.834;2023-04-06T04:06:32;9.15;;;8.25;;
50591;SDS011;36548;50.506;30.834;2023-04-06T04:07:42;9.37;;;8.42;;
50591;SDS011;36548;50.506;30.834;2023-04-06T04:08:58;10.28;;;8.68;;
50591;SDS011;36548;50.506;30.834;2023-04-06T04:10:08;8.42;;;7.35;;
50591;SDS011;36548;50.506;30.834;2023-04-06T04:11:24;7.45;;;6.75;;
50591;SDS011;36548;50.506;30.834;2023-04-06T04:12:36;7.27;;;6.57;;
50591;SDS011;36548;50.506;30.834;2023-04-06T04:13:46;8.82;;;7.95;;
50591;SDS011;36548;50.506;30.834;2023-04-06T04:14:56;9.43;;;8.53;;
50591;SDS011;36548;50.506;30.834;2023-04-06T04:16:06;9.17;;;7.73;;
50591;SDS011;36548;50.506;30.834;2023-04-06T04:17:16;9.50;;;7.82;;
50591;SDS011;36548;50.506;30.834;2023-04-06T04:18:26;9.32;;;7.62;;
50591;SDS011;36548;50.506;30.834;2023-04-06T04:19:42;7.87;;;6.48;;
50591;SDS011;36548;50.506;30.834;2023-04-06T04:20:52;8.75;;;5.85;;
50591;SDS011;36548;50.506;30.834;2023-04-06T04:22:08;7.80;;;6.12;;
50591;SDS011;36548;50.506;30.834;2023-04-06T04:23:20;6.72;;;5.80;;
50591;SDS011;36548;50.506;30.834;2023-04-06T04:24:30;8.33;;;6.65;;
50591;SDS011;36548;50.506;30.834;2023-04-06T04:25:46;7.82;;;5.95;;
50591;SDS011;36548;50.506;30.834;2023-04-06T04:28:07;7.76;;;5.80;;
50591;SDS011;36548;50.506;30.834;2023-04-06T04:29:23;7.15;;;5.42;;
50591;SDS011;36548;50.506;30.834;2023-04-06T04:30:33;7.25;;;6.15;;
50591;SDS011;36548;50.506;30.834;2023-04-06T04:31:42;8.80;;;6.90;;
50591;SDS011;36548;50.506;30.834;2023-04-06T04:32:58;7.17;;;6.47;;
50591;SDS011;36548;50.506;30.834;2023-04-06T04:34:09;8.92;;;7.25;;
50591;SDS011;36548;50.506;30.834;2023-04-06T04:35:19;7.03;;;6.42;;
50591;SDS011;36548;50.506;30.834;2023-04-06T04:36:28;7.18;;;6.47;;
50591;SDS011;36548;50.506;30.834;2023-04-06T04:37:51;7.00;;;6.18;;
50591;SDS011;36548;50.506;30.834;2023-04-06T04:39:01;6.63;;;5.53;;
50591;SDS011;36548;50.506;30.834;2023-04-06T04:40:13;6.88;;;5.25;;
50591;SDS011;36548;50.506;30.834;2023-04-06T04:41:30;7.25;;;6.05;;
50591;SDS011;36548;50.506;30.834;2023-04-06T04:42:40;7.15;;;5.65;;
50591;SDS011;36548;50.506;30.834;2023-04-06T04:43:55;8.80;;;5.48;;
50591;SDS011;36548;50.506;30.834;2023-04-06T04:45:06;6.45;;;5.75;;
50591;SDS011;36548;50.506;30.834;2023-04-06T04:46:20;7.20;;;6.42;;
50591;SDS011;36548;50.506;30.834;2023-04-06T04:47:29;9.05;;;6.70;;
50591;SDS011;36548;50.506;30.834;2023-04-06T04:48:39;7.45;;;6.60;;
50591;SDS011;36548;50.506;30.834;2023-04-06T04:49:49;9.37;;;7.32;;
50591;SDS011;36548;50.506;30.834;2023-04-06T04:51:05;8.03;;;7.23;;
50591;SDS011;36548;50.506;30.834;2023-04-06T04:53:04;9.15;;;8.20;;
50591;SDS011;36548;50.506;30.834;2023-04-06T04:54:16;9.07;;;8.07;;
50591;SDS011;36548;50.506;30.834;2023-04-06T04:55:28;10.85;;;7.62;;
50591;SDS011;36548;50.506;30.834;2023-04-06T04:56:39;7.33;;;6.63;;
50591;SDS011;36548;50.506;30.834;2023-04-06T04:58:01;10.05;;;7.00;;
50591;SDS011;36548;50.506;30.834;2023-04-06T04:59:17;7.05;;;6.23;;
50591;SDS011;36548;50.506;30.834;2023-04-06T05:00:28;7.55;;;5.58;;
50591;SDS011;36548;50.506;30.834;2023-04-06T05:01:44;7.13;;;5.70;;
50591;SDS011;36548;50.506;30.834;2023-04-06T05:02:56;7.85;;;5.50;;
50591;SDS011;36548;50.506;30.834;2023-04-06T05:04:11;8.48;;;6.00;;
50591;SDS011;36548;50.506;30.834;2023-04-06T05:05:21;7.30;;;6.22;;
50591;SDS011;36548;50.506;30.834;2023-04-06T05:06:31;7.60;;;5.95;;
50591;SDS011;36548;50.506;30.834;2023-04-06T05:08:06;7.37;;;5.58;;
50591;SDS011;36548;50.506;30.834;2023-04-06T05:09:23;6.80;;;6.03;;
50591;SDS011;36548;50.506;30.834;2023-04-06T05:10:39;7.22;;;6.07;;
50591;SDS011;36548;50.506;30.834;2023-04-06T05:11:49;7.53;;;6.60;;
50591;SDS011;36548;50.506;30.834;2023-04-06T05:12:59;8.62;;;7.22;;
50591;SDS011;36548;50.506;30.834;2023-04-06T05:14:15;10.80;;;8.17;;
50591;SDS011;36548;50.506;30.834;2023-04-06T05:15:25;8.53;;;6.92;;
50591;SDS011;36548;50.506;30.834;2023-04-06T05:16:43;9.03;;;7.05;;
50591;SDS011;36548;50.506;30.834;2023-04-06T05:17:54;8.08;;;7.28;;
50591;SDS011;36548;50.506;30.834;2023-04-06T05:19:10;7.86;;;7.08;;
50591;SDS011;36548;50.506;30.834;2023-04-06T05:20:23;9.85;;;8.37;;
50591;SDS011;36548;50.506;30.834;2023-04-06T05:21:38;9.20;;;8.27;;
50591;SDS011;36548;50.506;30.834;2023-04-06T05:22:48;9.35;;;8.50;;
50591;SDS011;36548;50.506;30.834;2023-04-06T05:24:05;10.08;;;7.58;;
50591;SDS011;36548;50.506;30.834;2023-04-06T05:25:16;9.25;;;8.05;;
50591;SDS011;36548;50.506;30.834;2023-04-06T05:26:33;9.37;;;7.47;;
50591;SDS011;36548;50.506;30.834;2023-04-06T05:27:45;9.35;;;7.70;;
50591;SDS011;36548;50.506;30.834;2023-04-06T05:29:00;8.73;;;7.85;;
50591;SDS011;36548;50.506;30.834;2023-04-06T05:30:11;9.35;;;8.40;;
50591;SDS011;36548;50.506;30.834;2023-04-06T05:31:27;9.57;;;8.57;;
50591;SDS011;36548;50.506;30.834;2023-04-06T05:32:38;9.30;;;6.95;;
50591;SDS011;36548;50.506;30.834;2023-04-06T05:33:54;7.55;;;6.52;;
50591;SDS011;36548;50.506;30.834;2023-04-06T05:35:08;9.85;;;6.10;;
50591;SDS011;36548;50.506;30.834;2023-04-06T05:36:24;7.50;;;6.35;;
50591;SDS011;36548;50.506;30.834;2023-04-06T05:37:34;6.85;;;6.12;;
50591;SDS011;36548;50.506;30.834;2023-04-06T05:38:56;7.08;;;5.87;;
50591;SDS011;36548;50.506;30.834;2023-04-06T05:40:58;7.05;;;5.80;;
50591;SDS011;36548;50.506;30.834;2023-04-06T05:42:13;7.13;;;5.48;;
50591;SDS011;36548;50.506;30.834;2023-04-06T05:43:32;7.35;;;5.45;;
50591;SDS011;36548;50.506;30.834;2023-04-06T05:44:42;7.13;;;5.95;;
50591;SDS011;36548;50.506;30.834;2023-04-06T05:46:05;5.97;;;5.27;;
50591;SDS011;36548;50.506;30.834;2023-04-06T05:47:14;6.57;;;5.57;;
50591;SDS011;36548;50.506;30.834;2023-04-06T05:48:30;7.50;;;6.35;;
50591;SDS011;36548;50.506;30.834;2023-04-06T05:49:41;7.03;;;6.33;;
50591;SDS011;36548;50.506;30.834;2023-04-06T05:50:57;10.62;;;6.25;;
50591;SDS011;36548;50.506;30.834;2023-04-06T05:52:09;7.63;;;6.85;;
50591;SDS011;36548;50.506;30.834;2023-04-06T05:53:25;8.23;;;7.13;;
50591;SDS011;36548;50.506;30.834;2023-04-06T05:54:37;9.42;;;7.28;;
50591;SDS011;36548;50.506;30.834;2023-04-06T05:55:46;8.60;;;7.58;;
50591;SDS011;36548;50.506;30.834;2023-04-06T05:56:58;8.00;;;7.20;;
50591;SDS011;36548;50.506;30.834;2023-04-06T05:58:14;9.38;;;8.47;;
50591;SDS011;36548;50.506;30.834;2023-04-06T05:59:23;9.63;;;6.88;;
50591;SDS011;36548;50.506;30.834;2023-04-06T06:00:39;8.98;;;6.72;;
50591;SDS011;36548;50.506;30.834;2023-04-06T06:01:49;6.65;;;5.75;;
50591;SDS011;36548;50.506;30.834;2023-04-06T06:03:04;6.53;;;5.55;;
50591;SDS011;36548;50.506;30.834;2023-04-06T06:04:15;6.10;;;5.50;;
50591;SDS011;36548;50.506;30.834;2023-04-06T06:05:30;6.27;;;4.60;;
50591;SDS011;36548;50.506;30.834;2023-04-06T06:06:41;6.28;;;5.07;;
50591;SDS011;36548;50.506;30.834;2023-04-06T06:07:57;7.40;;;6.15;;
50591;SDS011;36548;50.506;30.834;2023-04-06T06:09:07;9.90;;;6.28;;
50591;SDS011;36548;50.506;30.834;2023-04-06T06:10:19;8.90;;;7.08;;
50591;SDS011;36548;50.506;30.834;2023-04-06T06:11:36;7.25;;;6.55;;
50591;SDS011;36548;50.506;30.834;2023-04-06T06:13:55;12.18;;;7.65;;
50591;SDS011;36548;50.506;30.834;2023-04-06T06:16:17;9.40;;;7.32;;
50591;SDS011;36548;50.506;30.834;2023-04-06T06:17:29;8.05;;;6.62;;
50591;SDS011;36548;50.506;30.834;2023-04-06T06:18:44;9.93;;;7.88;;
50591;SDS011;36548;50.506;30.834;2023-04-06T06:19:54;7.57;;;6.45;;
50591;SDS011;36548;50.506;30.834;2023-04-06T06:21:29;9.27;;;7.58;;
50591;SDS011;36548;50.506;30.834;2023-04-06T06:22:40;7.88;;;7.03;;
50591;SDS011;36548;50.506;30.834;2023-04-06T06:23:56;8.10;;;7.20;;
50591;SDS011;36548;50.506;30.834;2023-04-06T06:25:06;10.25;;;7.55;;
50591;SDS011;36548;50.506;30.834;2023-04-06T06:26:23;9.48;;;7.30;;
50591;SDS011;36548;50.506;30.834;2023-04-06T06:27:32;9.25;;;7.37;;
50591;SDS011;36548;50.506;30.834;2023-04-06T06:28:48;9.47;;;7.17;;
50591;SDS011;36548;50.506;30.834;2023-04-06T06:29:57;8.15;;;6.83;;
50591;SDS011;36548;50.506;30.834;2023-04-06T06:31:14;8.00;;;6.65;;
50591;SDS011;36548;50.506;30.834;2023-04-06T06:33:39;8.78;;;6.63;;
50591;SDS011;36548;50.506;30.834;2023-04-06T06:34:49;8.15;;;6.95;;
50591;SDS011;36548;50.506;30.834;2023-04-06T06:36:05;9.55;;;7.43;;
50591;SDS011;36548;50.506;30.834;2023-04-06T06:37:15;8.08;;;7.32;;
50591;SDS011;36548;50.506;30.834;2023-04-06T06:38:25;11.95;;;8.00;;
50591;SDS011;36548;50.506;30.834;2023-04-06T06:39:35;11.20;;;7.35;;
50591;SDS011;36548;50.506;30.834;2023-04-06T06:40:50;9.55;;;7.15;;
50591;SDS011;36548;50.506;30.834;2023-04-06T06:42:00;8.60;;;7.00;;
50591;SDS011;36548;50.506;30.834;2023-04-06T06:43:17;9.78;;;7.20;;
50591;SDS011;36548;50.506;30.834;2023-04-06T06:44:32;12.55;;;8.02;;
50591;SDS011;36548;50.506;30.834;2023-04-06T06:45:42;7.75;;;7.02;;
50591;SDS011;36548;50.506;30.834;2023-04-06T06:46:59;8.60;;;7.12;;
50591;SDS011;36548;50.506;30.834;2023-04-06T06:48:09;9.80;;;7.30;;
50591;SDS011;36548;50.506;30.834;2023-04-06T06:49:21;11.13;;;7.67;;
50591;SDS011;36548;50.506;30.834;2023-04-06T06:50:37;9.95;;;7.33;;
50591;SDS011;36548;50.506;30.834;2023-04-06T06:51:47;9.20;;;6.85;;
50591;SDS011;36548;50.506;30.834;2023-04-06T06:52:57;9.50;;;7.72;;
50591;SDS011;36548;50.506;30.834;2023-04-06T06:54:12;10.22;;;7.40;;
50591;SDS011;36548;50.506;30.834;2023-04-06T06:55:21;7.62;;;6.22;;
50591;SDS011;36548;50.506;30.834;2023-04-06T06:56:31;9.93;;;7.75;;
50591;SDS011;36548;50.506;30.834;2023-04-06T06:57:46;8.62;;;6.82;;
50591;SDS011;36548;50.506;30.834;2023-04-06T06:58:56;8.42;;;7.48;;
50591;SDS011;36548;50.506;30.834;2023-04-06T07:00:12;9.25;;;7.18;;
50591;SDS011;36548;50.506;30.834;2023-04-06T07:01:23;11.75;;;7.70;;
50591;SDS011;36548;50.506;30.834;2023-04-06T07:02:39;8.07;;;7.17;;
50591;SDS011;36548;50.506;30.834;2023-04-06T07:03:48;7.62;;;6.68;;
50591;SDS011;36548;50.506;30.834;2023-04-06T07:05:04;9.07;;;7.23;;
50591;SDS011;36548;50.506;30.834;2023-04-06T07:06:19;10.57;;;7.65;;
50591;SDS011;36548;50.506;30.834;2023-04-06T07:07:31;8.10;;;7.10;;
50591;SDS011;36548;50.506;30.834;2023-04-06T07:08:48;9.65;;;8.03;;
50591;SDS011;36548;50.506;30.834;2023-04-06T07:09:57;9.30;;;7.58;;
50591;SDS011;36548;50.506;30.834;2023-04-06T07:11:12;9.05;;;7.67;;
50591;SDS011;36548;50.506;30.834;2023-04-06T07:12:22;9.12;;;7.92;;
50591;SDS011;36548;50.506;30.834;2023-04-06T07:14:49;13.65;;;8.70;;
50591;SDS011;36548;50.506;30.834;2023-04-06T07:15:59;9.53;;;8.35;;
50591;SDS011;36548;50.506;30.834;2023-04-06T07:17:09;8.47;;;6.98;;
50591;SDS011;36548;50.506;30.834;2023-04-06T07:18:19;9.70;;;8.20;;
50591;SDS011;36548;50.506;30.834;2023-04-06T07:19:35;13.52;;;9.50;;
50591;SDS011;36548;50.506;30.834;2023-04-06T07:20:44;9.17;;;7.28;;
50591;SDS011;36548;50.506;30.834;2023-04-06T07:22:00;9.27;;;6.32;;
50591;SDS011;36548;50.506;30.834;2023-04-06T07:23:11;8.35;;;6.70;;
50591;SDS011;36548;50.506;30.834;2023-04-06T07:24:21;8.45;;;6.55;;
50591;SDS011;36548;50.506;30.834;2023-04-06T07:25:36;11.55;;;7.78;;
50591;SDS011;36548;50.506;30.834;2023-04-06T07:26:46;7.45;;;6.58;;
50591;SDS011;36548;50.506;30.834;2023-04-06T07:28:01;7.83;;;6.77;;
50591;SDS011;36548;50.506;30.834;2023-04-06T07:29:12;9.33;;;7.32;;
50591;SDS011;36548;50.506;30.834;2023-04-06T07:30:29;7.73;;;6.92;;
50591;SDS011;36548;50.506;30.834;2023-04-06T07:31:41;10.07;;;8.03;;